x

Stingray Point, Va (44058) Weather Station

9:20pm - Mon 20th Nov 2017 All times are EST. -5 hours from GMT.

  • Wind
    11mph, 13mph gusts
  • Air Temp 49°f
  • Sea Pressure 1024mb
  • Stingray Point, Va
  • Stingray Point, Va

More Historic Weather Station data

Upgrade to MSW Pro to gain access to the past 30 days of data for over 8000 Wavebouys and Weather Stations around the globe.

Join

Comparision Forecast

View Surf forecast
   
Mon 11/20 9:20pm  -   -  11 13 mph 1024mb - 49f
9:10pm 0.7ft  -  11 13 mph 1024.1mb - 50f
9:00pm 0.7ft  -  11 13 mph 1024.1mb 53f 50f
8:50pm 0.7ft  -  9 13 mph 1024.1mb - 49f
8:40pm  -   -  9 11 mph 1024.1mb - 49f
8:30pm  -   -  9 11 mph 1024mb - 49f
8:20pm  -   -  9 11 mph 1023.9mb - 50f
8:10pm 0.7ft  -  9 11 mph 1023.8mb - 50f
8:00pm 0.7ft  -  9 11 mph 1023.8mb 54f 50f
7:50pm 0.7ft  -  7 9 mph 1023.7mb - 50f
7:40pm  -   -  7 9 mph 1023.7mb - 50f
7:30pm  -   -  9 11 mph 1023.7mb - 50f
7:20pm  -   -  9 11 mph 1023.7mb - 50f
7:10pm 0.7ft  -  9 11 mph 1023.7mb - 50f
7:00pm 0.7ft  -  11 11 mph 1023.7mb 53f 50f
6:50pm 0.7ft  -  11 13 mph 1023.6mb - 50f
6:40pm  -   -  11 13 mph 1023.5mb - 50f
6:30pm  -   -  11 13 mph 1023.4mb - 50f
6:20pm  -   -  11 13 mph 1023.4mb - 50f
6:10pm 0.3ft  -  9 11 mph 1023.4mb - 51f
6:00pm 0.3ft  -  9 11 mph 1023.4mb 54f 51f
5:50pm 0.3ft  -  9 11 mph 1023.5mb - 51f
5:40pm  -   -  7 9 mph 1023.4mb - 52f
5:30pm  -   -  4 7 mph 1023.3mb - 52f
5:20pm  -   -  7 7 mph 1023.3mb - 52f
5:10pm 0.3ft  -  4 7 mph 1023.2mb - 52f
5:00pm 0.3ft  -  4 7 mph 1023.1mb 54f 52f
4:50pm 0.3ft  -  7 7 mph 1023.1mb - 52f
4:40pm  -   -  7 7 mph 1023mb - 53f
4:30pm  -   -  7 9 mph 1023mb - 53f
4:20pm  -   -  4 7 mph 1023.1mb - 53f
4:10pm 0.3ft  -  4 7 mph 1023.1mb - 53f
4:00pm 0.3ft  -  4 7 mph 1023mb 54f 53f
3:50pm 0.3ft  -  7 9 mph 1023mb - 53f
3:40pm  -   -  4 7 mph 1023mb - 53f
3:30pm  -   -  7 9 mph 1022.9mb - 53f
3:20pm  -   -  9 11 mph 1022.8mb - 53f
3:10pm 0.7ft  -  9 11 mph 1022.8mb - 53f
3:00pm 0.7ft  -  9 11 mph 1022.8mb 54f 53f
2:50pm 0.7ft  -  9 13 mph 1022.8mb - 52f
2:40pm  -   -  9 11 mph 1022.9mb - 52f
2:30pm  -   -  9 13 mph 1022.9mb - 52f
2:20pm  -   -  7 11 mph 1022.9mb - 52f
2:10pm 0.7ft  -  9 11 mph 1022.9mb - 51f
2:00pm 0.7ft  -  7 11 mph 1023.1mb 54f 51f
1:50pm 0.7ft  -  9 9 mph 1023.2mb - 50f
1:40pm  -   -  9 11 mph 1023.4mb - 50f
1:30pm  -   -  9 13 mph 1023.3mb - 50f
1:20pm  -   -  9 13 mph 1023.2mb - 49f
1:10pm 0.7ft  -  9 11 mph 1023.3mb - 49f
1:00pm 1ft 2s 9 11 mph 1023.3mb 54f 49f
12:50pm  -   -  9 11 mph 1023.4mb - 48f
12:40pm  -   -  9 11 mph 1023.5mb - 48f
12:30pm  -   -  9 13 mph 1023.6mb - 48f
12:20pm  -   -  11 13 mph 1023.6mb - 47f
12:10pm 1ft  -  11 13 mph 1023.7mb - 47f
12:00pm 1ft 2s 11 13 mph 1023.7mb 54f 47f
11:50am  -   -  11 13 mph 1023.7mb - 47f
11:40am  -   -  11 16 mph 1023.7mb - 46f
11:30am  -   -  11 13 mph 1023.8mb - 46f
11:20am  -   -  11 16 mph 1023.8mb - 46f
11:10am 1ft  -  11 16 mph 1023.9mb - 46f
11:00am 1ft 3s 11 16 mph 1023.9mb 54f 46f
10:50am 1ft  -  11 13 mph 1023.9mb - 45f
10:40am  -   -  9 13 mph 1023.9mb - 45f
10:30am  -   -  9 13 mph 1024mb - 45f
10:20am  -   -  9 13 mph 1024.1mb - 45f
10:10am 0.7ft  -  9 11 mph 1024.2mb - 45f
10:00am 0.7ft  -  9 11 mph 1024.1mb 53f 45f
9:50am 0.7ft  -  9 11 mph 1024mb - 45f
9:40am  -   -  9 11 mph 1024mb - 44f
9:30am  -   -  9 11 mph 1023.8mb - 44f
9:20am  -   -  9 11 mph 1023.7mb - 44f
9:10am 1ft  -  11 13 mph 1023.7mb - 44f
9:00am 1ft 2s 11 13 mph 1023.5mb 53f 44f
8:50am 1ft  -  11 13 mph 1023.5mb - 44f
8:40am  -   -  11 13 mph 1023.3mb - 44f
8:30am  -   -  11 16 mph 1023.1mb - 44f
8:20am  -   -  11 13 mph 1022.8mb - 44f
8:10am 1ft  -  11 13 mph 1022.6mb - 44f
8:00am 1ft 2s 11 13 mph 1022.5mb 54f 44f
7:50am  -   -  11 13 mph 1022.4mb - 44f
7:40am  -   -  11 16 mph 1022.3mb - 44f
7:30am  -   -  11 16 mph 1022.1mb - 44f
7:20am  -   -  13 16 mph 1021.9mb - 44f
7:10am 1ft  -  13 18 mph 1021.8mb - 44f
7:00am 1ft 2s 13 16 mph 1021.7mb 54f 43f
6:50am 1ft  -  13 18 mph 1021.4mb - 43f
6:40am  -   -  13 18 mph 1021.1mb - 43f
6:30am  -   -  13 18 mph 1020.8mb - 43f
6:20am  -   -  16 18 mph 1020.6mb - 43f
6:10am 1ft  -  13 18 mph 1020.6mb - 43f
6:00am 1ft 2s 13 18 mph 1020.5mb 54f 43f
5:50am 1ft  -  13 18 mph 1020.4mb - 43f
5:40am  -   -  16 18 mph 1020.1mb - 43f
5:30am  -   -  13 18 mph 1019.9mb - 43f
5:20am  -   -  16 18 mph 1019.6mb - 43f
5:10am 1ft  -  13 18 mph 1019.4mb - 43f
5:00am 1ft 2s 16 18 mph 1019.2mb 54f 43f
4:50am 1ft  -  16 18 mph 1019mb - 43f
4:40am  -   -  16 18 mph 1018.8mb - 43f
4:30am  -   -  16 18 mph 1018.8mb - 44f
4:20am  -   -  16 20 mph 1018.6mb - 43f
4:10am 1ft  -  16 20 mph 1018.4mb - 43f
4:00am 1ft 2s 16 18 mph 1018.2mb 54f 43f
3:50am 1ft  -  16 18 mph 1018.2mb - 43f
3:40am  -   -  13 18 mph 1018.2mb - 43f
3:30am  -   -  13 16 mph 1018.1mb - 43f
3:20am  -   -  16 18 mph 1018.2mb - 43f
3:10am 1ft  -  16 18 mph 1018.2mb - 43f
3:00am 1ft 2s 16 18 mph 1018.2mb 54f 44f
2:50am  -   -  16 18 mph 1018.2mb - 44f
2:40am  -   -  13 16 mph 1018.1mb - 44f
2:30am  -   -  13 16 mph 1017.9mb - 44f
2:20am  -   -  13 16 mph 1017.8mb - 44f
2:10am 1ft  -  13 18 mph 1017.6mb - 44f
2:00am 1ft 2s 16 18 mph 1017.4mb 54f 45f
1:50am  -   -  16 20 mph 1017.2mb - 45f
1:40am  -   -  16 20 mph 1017mb - 46f
1:30am  -   -  16 18 mph 1016.7mb - 45f
1:20am  -   -  13 18 mph 1016.6mb - 45f
1:10am 1ft  -  13 16 mph 1016.4mb - 45f
1:00am 1ft 2s 11 13 mph 1016.3mb 53f 45f
12:50am 1ft  -  11 13 mph 1016.1mb - 45f
12:40am  -   -  11 13 mph 1016.1mb - 46f
12:30am  -   -  13 16 mph 1016mb - 46f
12:20am  -   -  13 16 mph 1016mb - 46f
12:10am 1.3ft  -  13 16 mph 1015.9mb - 46f
12:00am 1.3ft 2s 13 16 mph 1015.9mb 53f 46f
Sun 11/19 11:50pm 1.3ft  -  13 16 mph 1015.8mb - 46f
11:40pm  -   -  16 18 mph 1015.7mb - 47f
11:30pm  -   -  16 18 mph 1015.7mb - 47f
11:20pm  -   -  18 20 mph 1015.6mb - 47f
11:10pm 1.6ft  -  18 25 mph 1015.4mb - 48f
11:00pm 1.6ft 3s 20 25 mph 1015.3mb 55f 48f
10:50pm  -   -  20 25 mph 1015.2mb - 48f
10:40pm  -   -  18 22 mph 1015.2mb - 48f
10:30pm  -   -  20 25 mph 1015.1mb - 48f
10:20pm  -   -  18 22 mph 1015.1mb - 48f
10:10pm 1.3ft  -  18 22 mph 1015.1mb - 48f
10:00pm 1.3ft 3s 18 25 mph 1014.8mb 54f 48f
9:50pm 1.3ft  -  16 20 mph 1014.6mb - 49f
9:40pm  -   -  16 18 mph 1014.2mb - 48f
9:30pm  -   -  13 20 mph 1014.1mb - 48f
9:20pm  -   -  16 18 mph 1014mb - 48f
9:10pm 1.6ft  -  16 18 mph 1014mb - 48f
9:00pm 1.6ft 3s 13 18 mph 1014.1mb 54f 48f
8:50pm 1.6ft  -  16 18 mph 1013.9mb - 48f
8:40pm  -   -  16 20 mph 1013.6mb - 48f
8:30pm  -   -  16 20 mph 1013.4mb - 48f
8:20pm  -   -  16 20 mph 1013.2mb - 48f
8:10pm 2ft  -  16 20 mph 1013mb - 49f
8:00pm 2ft 3s 18 20 mph 1012.9mb 54f 49f
7:50pm 2ft  -  18 22 mph 1012.8mb - 49f
7:40pm  -   -  18 22 mph 1012.7mb - 49f
7:30pm  -   -  18 22 mph 1012.4mb - 49f
7:20pm  -   -  18 25 mph 1012.3mb - 49f
7:10pm 2ft  -  18 22 mph 1012.1mb - 49f
7:00pm 2ft 3s 18 22 mph 1011.9mb 55f 49f
6:50pm 2ft  -  18 22 mph 1011.7mb - 50f
6:40pm  -   -  18 22 mph 1011.4mb - 50f
6:30pm  -   -  20 27 mph 1011.2mb - 50f
6:20pm  -   -  20 27 mph 1010.9mb - 50f
6:10pm 1.6ft  -  18 27 mph 1010.6mb - 51f
6:00pm 1.6ft 3s 18 22 mph 1010.4mb 55f 51f
5:50pm 1.6ft  -  20 25 mph 1010.2mb - 52f
5:40pm  -   -  18 22 mph 1010mb - 52f
5:30pm  -   -  16 20 mph 1009.7mb - 52f
5:20pm  -   -  13 18 mph 1009.5mb - 52f
5:10pm 1.6ft  -  13 18 mph 1009.3mb - 53f
5:00pm 1.6ft 3s 16 20 mph 1009.1mb 55f 53f
4:50pm 1.6ft  -  16 20 mph 1008.8mb - 53f
4:40pm  -   -  16 20 mph 1008.5mb - 54f
4:30pm  -   -  18 20 mph 1008.3mb - 54f
4:20pm  -   -  18 22 mph 1008mb - 55f
4:10pm 1.6ft  -  16 20 mph 1007.8mb - 55f
4:00pm 1.6ft 3s 16 22 mph 1007.5mb 55f 56f
3:50pm 1.6ft  -  16 20 mph 1007.3mb - 56f
3:40pm  -   -  16 20 mph 1007.2mb - 57f
3:30pm  -   -  18 25 mph 1006.9mb - 57f
3:20pm  -   -  18 22 mph 1006.6mb - 57f
3:10pm 1.6ft  -  18 22 mph 1006.4mb - 57f
3:00pm 1.6ft 3s 18 22 mph 1006.3mb 55f 56f
2:50pm  -   -  20 25 mph 1006.2mb - 56f
2:40pm  -   -  20 25 mph 1006.1mb - 56f
2:30pm  -   -  18 22 mph 1006.2mb - 56f
2:20pm  -   -  20 25 mph 1006.1mb - 56f
2:10pm 1.6ft  -  18 22 mph 1006.1mb - 56f
2:00pm 1.6ft 3s 20 25 mph 1006mb 55f 56f
1:50pm 1.6ft  -  20 25 mph 1005.9mb - 56f
1:40pm  -   -  20 25 mph 1005.9mb - 56f
1:30pm  -   -  20 25 mph 1005.9mb - 56f
1:20pm  -   -  20 22 mph 1005.8mb - 56f
1:10pm 1.6ft  -  20 22 mph 1005.7mb - 56f
1:00pm 1.6ft 3s 18 22 mph 1005.8mb 55f 56f
12:50pm 1.6ft  -  20 25 mph 1005.8mb - 56f
12:40pm  -   -  20 25 mph 1005.8mb - 56f
12:30pm  -   -  20 25 mph 1005.7mb - 56f
12:20pm  -   -  20 25 mph 1005.7mb - 56f
12:10pm 2.5ft  -  18 22 mph 1005.7mb - 56f
12:00pm 2.5ft 3s 18 25 mph 1005.8mb 55f 56f
11:50am 2.5ft  -  18 25 mph 1005.8mb - 56f
11:40am  -   -  20 25 mph 1005.8mb - 56f
11:30am  -   -  18 25 mph 1005.9mb - 56f
11:20am  -   -  18 22 mph 1005.9mb - 56f
11:10am 2.5ft  -  18 22 mph 1005.8mb - 56f
11:00am 2.5ft 3s 20 25 mph 1005.8mb 55f 56f
10:50am 2.5ft  -  20 27 mph 1005.7mb - 56f
10:40am  -   -  22 29 mph 1005.6mb - 56f
10:30am  -   -  22 29 mph 1005.5mb - 56f
10:20am  -   -  22 29 mph 1005.2mb - 56f
10:10am 2.5ft  -  22 27 mph 1005.1mb - 56f
10:00am 2.5ft 3s  -  mph - 55f -
Fri 11/17 3:10pm 1ft  -  16 18 mph 1021.2mb - 51f
3:00pm 1ft 3s 16 18 mph 1021.1mb 55f 51f
2:50pm 1ft  -  13 18 mph 1021mb - 51f
2:40pm  -   -  13 18 mph 1020.8mb - 51f
2:30pm  -   -  13 18 mph 1020.8mb - 51f
2:20pm  -   -  13 16 mph 1020.8mb - 51f
2:10pm 1ft  -  13 16 mph 1020.9mb - 51f
2:00pm 1ft 2s 16 18 mph 1021mb 55f 51f
1:50pm 1ft  -  16 18 mph 1021.2mb - 50f
1:40pm  -   -  16 20 mph 1021.3mb - 50f
1:30pm  -   -  16 18 mph 1021.5mb - 50f
1:20pm  -   -  16 18 mph 1021.5mb - 50f
1:10pm 1.3ft  -  16 20 mph 1021.6mb - 50f
1:00pm 1.3ft 2s 16 20 mph 1021.7mb 53f 50f
12:50pm 1.3ft  -  16 20 mph 1021.9mb - 49f
12:40pm  -   -  18 20 mph 1021.9mb - 49f
12:30pm  -   -  18 20 mph 1021.8mb - 49f
12:20pm  -   -  16 20 mph 1021.9mb - 49f
12:10pm 1.6ft  -  16 20 mph 1022.1mb - 49f
12:00pm 1.6ft 3s 11 16 mph 1022.2mb 55f 49f
11:50am 1.6ft  -  11 16 mph 1022.3mb - 49f
11:40am  -   -  11 16 mph 1022.4mb - 49f
11:30am  -   -  11 13 mph 1022.5mb - 49f
11:20am  -   -  11 16 mph 1022.6mb - 48f
11:10am 1.6ft  -  13 18 mph 1022.7mb - 48f
11:00am 1.6ft 3s 13 16 mph 1022.8mb 55f 48f
10:50am 1.6ft  -  13 18 mph 1022.9mb - 48f
10:40am  -   -  13 18 mph 1023mb - 48f
10:30am  -   -  13 18 mph 1023.1mb - 48f
10:20am  -   -  13 18 mph 1023.2mb - 48f
10:10am 1.3ft  -  11 16 mph 1023mb - 47f
10:00am 1.3ft 3s 11 16 mph 1023.1mb 55f 47f
9:50am 1.3ft  -  13 18 mph 1023.1mb - 47f
9:40am  -   -  13 16 mph 1023.2mb - 47f
9:30am  -   -  13 18 mph 1023.2mb - 46f
9:20am  -   -  13 18 mph 1023.1mb - 46f
9:10am 1.3ft  -  13 18 mph 1023.2mb - 46f
9:00am 1.3ft 3s 13 18 mph 1023.2mb 55f 46f
8:50am 1.3ft  -  13 16 mph 1023.2mb - 45f
8:40am  -   -  13 18 mph 1023.2mb - 45f
8:30am  -   -  13 16 mph 1023.2mb - 45f
8:20am  -   -  16 18 mph 1023.2mb - 45f
8:10am 1.3ft  -  16 20 mph 1023mb - 45f
8:00am 1.3ft 3s 16 22 mph 1022.9mb 54f 45f
7:50am  -   -  16 18 mph 1022.8mb - 45f
7:40am  -   -  16 20 mph 1022.6mb - 45f
7:30am  -   -  16 20 mph 1022.3mb - 45f
7:20am  -   -  16 18 mph 1022.2mb - 45f
7:10am 1.6ft  -  16 20 mph 1022mb - 45f
7:00am 1.6ft 3s 16 20 mph 1021.8mb 55f 44f
6:50am 1.6ft  -  16 20 mph 1021.7mb - 44f
6:40am  -   -  16 20 mph 1021.7mb - 44f
6:30am  -   -  16 20 mph 1021.7mb - 44f
6:20am  -   -  16 18 mph 1021.6mb - 45f
6:10am 1.3ft  -  16 20 mph 1021.4mb - 45f
6:00am 1.3ft 2s 16 20 mph 1021.2mb 55f 45f
5:50am 1.3ft  -  18 20 mph 1021.2mb - 45f
5:40am  -   -  18 22 mph 1021.1mb - 45f
5:30am  -   -  18 20 mph 1020.9mb - 45f
5:20am  -   -  18 22 mph 1020.9mb - 45f
5:10am 1.6ft  -  18 20 mph 1020.8mb - 45f
5:00am 1.6ft 3s 18 22 mph 1020.7mb 55f 45f
4:50am 1.6ft  -  18 20 mph 1020.7mb - 45f
4:40am  -   -  18 25 mph 1020.5mb - 45f
4:30am  -   -  20 25 mph 1020.5mb - 45f
4:20am  -   -  18 25 mph 1020.5mb - 46f
4:10am 1.6ft  -  18 22 mph 1020.4mb - 46f
4:00am 1.6ft 3s 20 22 mph 1020.4mb 55f 46f
3:50am 1.6ft  -  18 22 mph 1020.3mb - 45f
3:40am  -   -  18 22 mph 1020.2mb - 45f
3:30am  -   -  18 20 mph 1020.3mb - 45f